Galesville, MD (20765)

4:04 PM EDT on August 04, 2015 (GMT -0400)
West River | | Change Station
CLOSE
Current Station
Personal Weather Station
Location: Galesville, MD
Elevation: 15 ft
Nearby Weather Stations

Elev 15 ft 38.85 °N, 76.54 °W | Updated 10 minutes ago

Clear
Clear
90.9 °F
Feels Like 96 °F
N
3.0
Wind Variable Wind from WSW
Gusts 9.0 mph

Today
High -- | Low -- °F
--% Chance of Precip.
Yesterday
High -- | Low -- °F
Precip. -- in
6:09 AM 8:14 PM
Waning Gibbous, 75% visible
Pressure 29.88 in
Visibility 10.0 miles
Clouds Mostly Cloudy 6500 ft
Mostly Cloudy 8000 ft
Heat Index 96 °F
Dew Point 69 °F
Humidity 49%
Rainfall 0.00 in
Snow Depth Not available.
UV 4 out of 12
Pollen 7.10 out of 12
Air Quality Not available.
Flu Activity Not available.
METAR KNAK 041954Z AUTO 13008KT 110V170 10SM BKN065 BKN080 30/22 A2988 RMK AO2 SLP118 T03000222

More Conditions Fewer Conditions

Pressure 29.88 in
Visibility 10.0 miles
Clouds Mostly Cloudy 6500 ft
Mostly Cloudy 8000 ft
Heat Index 96 °F
Dew Point 69 °F
Humidity 49%
Rainfall 0.00 in
Snow Depth Not available.
UV 4 out of 12
Pollen 7.10 out of 12
Air Quality Not available.
Flu Activity Not available.
METAR KNAK 041954Z AUTO 13008KT 110V170 10SM BKN065 BKN080 30/22 A2988 RMK AO2 SLP118 T03000222

More Conditions Fewer Conditions

10-Day Weather Forecast

×

Almanac

Astronomy

Aug. 04, 2015 Rise Set
Actual Time
Civil Twilight
Nautical Twilight
Astronomical Twilight
Moon
Length of Visible Light
Length of Day
Tomorrow will be .
, % of the Moon is Illuminated

Today's Extremes

State Highs State Lows

Community

WunderPhotos

Upload Photos

1,843,962 photos uploaded!

WunderBlogs® & News

Nearby

Air Quality

  Air Quality AQ Index Pollutant
Not available.

Snow Depth

Station Depth Elevation

Earthquake Activity

City Distance Mag. Time & Date
Minimum magnitude displayed is 2.5.

Coastal Water Temperatures

Place Temperature

Stations

Nearby Weather Stations

Station Location Temp. Windchill Dew Point Humidity Wind Precip. Elev Updated Type